sensor_id;sensor_type;location;lat;lon;timestamp;P1;durP1;ratioP1;P2;durP2;ratioP2
29044;SDS011;16133;49.486;12.176;2023-07-24T00:02:08;6.20;;;2.92;;
29044;SDS011;16133;49.486;12.176;2023-07-24T00:04:33;7.35;;;3.25;;
29044;SDS011;16133;49.486;12.176;2023-07-24T00:07:02;7.20;;;3.33;;
29044;SDS011;16133;49.486;12.176;2023-07-24T00:09:27;6.63;;;3.40;;
29044;SDS011;16133;49.486;12.176;2023-07-24T00:11:53;8.02;;;3.25;;
29044;SDS011;16133;49.486;12.176;2023-07-24T00:14:18;7.55;;;3.45;;
29044;SDS011;16133;49.486;12.176;2023-07-24T00:16:43;8.02;;;4.00;;
29044;SDS011;16133;49.486;12.176;2023-07-24T00:19:09;6.97;;;3.58;;
29044;SDS011;16133;49.486;12.176;2023-07-24T00:21:34;8.13;;;3.85;;
29044;SDS011;16133;49.486;12.176;2023-07-24T00:23:59;8.13;;;4.20;;
29044;SDS011;16133;49.486;12.176;2023-07-24T00:26:25;7.43;;;3.72;;
29044;SDS011;16133;49.486;12.176;2023-07-24T00:28:50;8.27;;;3.42;;
29044;SDS011;16133;49.486;12.176;2023-07-24T00:31:16;9.23;;;3.97;;
29044;SDS011;16133;49.486;12.176;2023-07-24T00:33:41;6.72;;;3.25;;
29044;SDS011;16133;49.486;12.176;2023-07-24T00:36:06;8.02;;;4.18;;
29044;SDS011;16133;49.486;12.176;2023-07-24T00:38:32;6.97;;;3.50;;
29044;SDS011;16133;49.486;12.176;2023-07-24T00:40:57;5.63;;;3.28;;
29044;SDS011;16133;49.486;12.176;2023-07-24T00:43:23;7.05;;;3.88;;
29044;SDS011;16133;49.486;12.176;2023-07-24T00:45:48;7.00;;;3.55;;
29044;SDS011;16133;49.486;12.176;2023-07-24T00:48:14;7.15;;;3.92;;
29044;SDS011;16133;49.486;12.176;2023-07-24T00:50:40;7.18;;;4.15;;
29044;SDS011;16133;49.486;12.176;2023-07-24T00:53:07;7.78;;;3.63;;
29044;SDS011;16133;49.486;12.176;2023-07-24T00:55:33;8.25;;;4.80;;
29044;SDS011;16133;49.486;12.176;2023-07-24T00:57:59;9.90;;;4.22;;
29044;SDS011;16133;49.486;12.176;2023-07-24T01:00:25;6.65;;;3.75;;
29044;SDS011;16133;49.486;12.176;2023-07-24T01:02:51;8.32;;;4.00;;
29044;SDS011;16133;49.486;12.176;2023-07-24T01:05:17;8.32;;;4.22;;
29044;SDS011;16133;49.486;12.176;2023-07-24T01:07:42;7.18;;;4.13;;
29044;SDS011;16133;49.486;12.176;2023-07-24T01:10:08;8.70;;;4.50;;
29044;SDS011;16133;49.486;12.176;2023-07-24T01:17:34;10.20;;;4.82;;
29044;SDS011;16133;49.486;12.176;2023-07-24T01:20:04;8.15;;;4.10;;
29044;SDS011;16133;49.486;12.176;2023-07-24T01:22:39;8.65;;;4.50;;
29044;SDS011;16133;49.486;12.176;2023-07-24T01:25:11;9.55;;;4.70;;
29044;SDS011;16133;49.486;12.176;2023-07-24T01:27:52;10.00;;;5.13;;
29044;SDS011;16133;49.486;12.176;2023-07-24T01:30:18;9.13;;;4.65;;
29044;SDS011;16133;49.486;12.176;2023-07-24T01:32:44;11.63;;;5.28;;
29044;SDS011;16133;49.486;12.176;2023-07-24T01:35:10;9.98;;;5.35;;
29044;SDS011;16133;49.486;12.176;2023-07-24T01:37:36;9.60;;;4.70;;
29044;SDS011;16133;49.486;12.176;2023-07-24T01:40:07;13.98;;;6.43;;
29044;SDS011;16133;49.486;12.176;2023-07-24T01:42:34;9.23;;;4.93;;
29044;SDS011;16133;49.486;12.176;2023-07-24T01:45:01;10.45;;;5.15;;
29044;SDS011;16133;49.486;12.176;2023-07-24T01:47:28;10.25;;;4.90;;
29044;SDS011;16133;49.486;12.176;2023-07-24T01:49:54;8.63;;;4.05;;
29044;SDS011;16133;49.486;12.176;2023-07-24T01:52:20;10.75;;;5.28;;
29044;SDS011;16133;49.486;12.176;2023-07-24T01:54:45;12.60;;;5.72;;
29044;SDS011;16133;49.486;12.176;2023-07-24T01:57:11;9.75;;;5.00;;
29044;SDS011;16133;49.486;12.176;2023-07-24T01:59:36;8.40;;;4.18;;
29044;SDS011;16133;49.486;12.176;2023-07-24T02:02:02;9.23;;;4.72;;
29044;SDS011;16133;49.486;12.176;2023-07-24T02:04:28;11.07;;;4.55;;
29044;SDS011;16133;49.486;12.176;2023-07-24T02:06:54;10.55;;;5.18;;
29044;SDS011;16133;49.486;12.176;2023-07-24T02:09:19;14.88;;;5.88;;
29044;SDS011;16133;49.486;12.176;2023-07-24T02:11:45;16.38;;;5.60;;
29044;SDS011;16133;49.486;12.176;2023-07-24T02:14:11;11.18;;;5.55;;
29044;SDS011;16133;49.486;12.176;2023-07-24T02:16:38;9.25;;;4.70;;
29044;SDS011;16133;49.486;12.176;2023-07-24T02:19:03;10.02;;;4.65;;
29044;SDS011;16133;49.486;12.176;2023-07-24T02:21:29;11.30;;;5.57;;
29044;SDS011;16133;49.486;12.176;2023-07-24T02:23:54;13.35;;;6.50;;
29044;SDS011;16133;49.486;12.176;2023-07-24T02:26:19;11.68;;;5.45;;
29044;SDS011;16133;49.486;12.176;2023-07-24T02:28:45;9.30;;;5.28;;
29044;SDS011;16133;49.486;12.176;2023-07-24T02:31:10;8.98;;;5.30;;
29044;SDS011;16133;49.486;12.176;2023-07-24T02:33:36;11.63;;;5.28;;
29044;SDS011;16133;49.486;12.176;2023-07-24T02:36:02;8.90;;;4.40;;
29044;SDS011;16133;49.486;12.176;2023-07-24T02:38:27;11.05;;;5.40;;
29044;SDS011;16133;49.486;12.176;2023-07-24T02:40:53;10.75;;;5.43;;
29044;SDS011;16133;49.486;12.176;2023-07-24T02:43:18;11.02;;;5.88;;
29044;SDS011;16133;49.486;12.176;2023-07-24T02:45:43;10.38;;;5.53;;
29044;SDS011;16133;49.486;12.176;2023-07-24T02:48:09;10.15;;;5.10;;
29044;SDS011;16133;49.486;12.176;2023-07-24T02:50:34;10.35;;;5.07;;
29044;SDS011;16133;49.486;12.176;2023-07-24T02:53:00;11.10;;;5.03;;
29044;SDS011;16133;49.486;12.176;2023-07-24T02:55:25;12.32;;;5.32;;
29044;SDS011;16133;49.486;12.176;2023-07-24T02:57:51;10.50;;;5.38;;
29044;SDS011;16133;49.486;12.176;2023-07-24T03:00:16;10.70;;;5.28;;
29044;SDS011;16133;49.486;12.176;2023-07-24T03:02:42;9.93;;;5.20;;
29044;SDS011;16133;49.486;12.176;2023-07-24T03:05:07;9.77;;;5.05;;
29044;SDS011;16133;49.486;12.176;2023-07-24T03:07:33;9.20;;;5.28;;
29044;SDS011;16133;49.486;12.176;2023-07-24T03:09:58;7.65;;;4.68;;
29044;SDS011;16133;49.486;12.176;2023-07-24T03:12:24;9.60;;;4.97;;
29044;SDS011;16133;49.486;12.176;2023-07-24T03:14:49;9.85;;;5.20;;
29044;SDS011;16133;49.486;12.176;2023-07-24T03:17:15;9.05;;;4.82;;
29044;SDS011;16133;49.486;12.176;2023-07-24T03:19:41;9.93;;;5.07;;
29044;SDS011;16133;49.486;12.176;2023-07-24T03:22:06;8.82;;;4.80;;
29044;SDS011;16133;49.486;12.176;2023-07-24T03:24:32;11.55;;;5.10;;
29044;SDS011;16133;49.486;12.176;2023-07-24T03:26:58;9.73;;;5.57;;
29044;SDS011;16133;49.486;12.176;2023-07-24T03:29:25;10.80;;;5.30;;
29044;SDS011;16133;49.486;12.176;2023-07-24T03:31:51;11.07;;;5.97;;
29044;SDS011;16133;49.486;12.176;2023-07-24T03:34:16;11.63;;;6.18;;
29044;SDS011;16133;49.486;12.176;2023-07-24T03:36:42;9.23;;;4.88;;
29044;SDS011;16133;49.486;12.176;2023-07-24T03:39:08;11.38;;;6.25;;
29044;SDS011;16133;49.486;12.176;2023-07-24T03:41:34;12.13;;;6.25;;
29044;SDS011;16133;49.486;12.176;2023-07-24T03:44:00;12.40;;;6.35;;
29044;SDS011;16133;49.486;12.176;2023-07-24T03:46:25;13.45;;;5.78;;
29044;SDS011;16133;49.486;12.176;2023-07-24T03:48:51;15.43;;;5.97;;
29044;SDS011;16133;49.486;12.176;2023-07-24T03:51:16;16.02;;;5.65;;
29044;SDS011;16133;49.486;12.176;2023-07-24T03:53:42;13.02;;;5.47;;
29044;SDS011;16133;49.486;12.176;2023-07-24T03:56:08;12.30;;;6.03;;
29044;SDS011;16133;49.486;12.176;2023-07-24T03:58:33;14.27;;;6.10;;
29044;SDS011;16133;49.486;12.176;2023-07-24T04:00:58;11.88;;;5.82;;
29044;SDS011;16133;49.486;12.176;2023-07-24T04:03:24;9.75;;;5.03;;
29044;SDS011;16133;49.486;12.176;2023-07-24T04:05:49;10.93;;;6.25;;
29044;SDS011;16133;49.486;12.176;2023-07-24T04:08:14;8.88;;;5.43;;
29044;SDS011;16133;49.486;12.176;2023-07-24T04:10:40;12.80;;;6.40;;
29044;SDS011;16133;49.486;12.176;2023-07-24T04:13:06;11.68;;;5.63;;
29044;SDS011;16133;49.486;12.176;2023-07-24T04:15:31;11.23;;;5.80;;
29044;SDS011;16133;49.486;12.176;2023-07-24T04:17:56;11.00;;;5.95;;
29044;SDS011;16133;49.486;12.176;2023-07-24T04:20:22;11.95;;;5.95;;
29044;SDS011;16133;49.486;12.176;2023-07-24T04:22:47;9.48;;;5.10;;
29044;SDS011;16133;49.486;12.176;2023-07-24T04:25:13;12.63;;;5.60;;
29044;SDS011;16133;49.486;12.176;2023-07-24T04:27:38;13.93;;;6.53;;
29044;SDS011;16133;49.486;12.176;2023-07-24T04:30:07;12.73;;;6.85;;
29044;SDS011;16133;49.486;12.176;2023-07-24T04:32:32;14.82;;;5.47;;
29044;SDS011;16133;49.486;12.176;2023-07-24T04:34:58;13.32;;;5.78;;
29044;SDS011;16133;49.486;12.176;2023-07-24T04:37:23;12.48;;;6.45;;
29044;SDS011;16133;49.486;12.176;2023-07-24T04:39:49;11.23;;;5.35;;
29044;SDS011;16133;49.486;12.176;2023-07-24T04:42:14;12.15;;;6.30;;
29044;SDS011;16133;49.486;12.176;2023-07-24T04:44:40;12.90;;;5.90;;
29044;SDS011;16133;49.486;12.176;2023-07-24T04:47:05;10.98;;;5.65;;
29044;SDS011;16133;49.486;12.176;2023-07-24T04:49:31;10.05;;;5.22;;
29044;SDS011;16133;49.486;12.176;2023-07-24T04:51:57;10.48;;;5.10;;
29044;SDS011;16133;49.486;12.176;2023-07-24T04:54:23;13.23;;;6.00;;
29044;SDS011;16133;49.486;12.176;2023-07-24T04:56:49;11.77;;;5.97;;
29044;SDS011;16133;49.486;12.176;2023-07-24T04:59:14;12.90;;;6.22;;
29044;SDS011;16133;49.486;12.176;2023-07-24T05:01:39;10.75;;;5.55;;
29044;SDS011;16133;49.486;12.176;2023-07-24T05:04:05;12.13;;;5.25;;
29044;SDS011;16133;49.486;12.176;2023-07-24T05:06:31;12.30;;;6.00;;
29044;SDS011;16133;49.486;12.176;2023-07-24T05:08:56;10.82;;;5.95;;
29044;SDS011;16133;49.486;12.176;2023-07-24T05:11:21;11.13;;;6.00;;
29044;SDS011;16133;49.486;12.176;2023-07-24T05:13:47;11.35;;;6.07;;
29044;SDS011;16133;49.486;12.176;2023-07-24T05:16:12;10.23;;;5.75;;
29044;SDS011;16133;49.486;12.176;2023-07-24T05:18:38;11.02;;;5.75;;
29044;SDS011;16133;49.486;12.176;2023-07-24T05:21:03;10.77;;;6.05;;
29044;SDS011;16133;49.486;12.176;2023-07-24T05:23:29;10.45;;;5.55;;
29044;SDS011;16133;49.486;12.176;2023-07-24T05:25:58;10.27;;;5.85;;
29044;SDS011;16133;49.486;12.176;2023-07-24T05:28:25;12.27;;;6.47;;
29044;SDS011;16133;49.486;12.176;2023-07-24T05:30:51;10.70;;;5.60;;
29044;SDS011;16133;49.486;12.176;2023-07-24T05:33:17;11.20;;;5.90;;
29044;SDS011;16133;49.486;12.176;2023-07-24T05:35:42;8.88;;;5.35;;
29044;SDS011;16133;49.486;12.176;2023-07-24T05:38:08;11.15;;;5.50;;
29044;SDS011;16133;49.486;12.176;2023-07-24T05:40:34;10.02;;;5.97;;
29044;SDS011;16133;49.486;12.176;2023-07-24T05:42:59;10.32;;;5.90;;
29044;SDS011;16133;49.486;12.176;2023-07-24T05:45:26;8.77;;;5.28;;
29044;SDS011;16133;49.486;12.176;2023-07-24T05:47:52;9.90;;;5.30;;
29044;SDS011;16133;49.486;12.176;2023-07-24T05:50:17;9.18;;;5.65;;
29044;SDS011;16133;49.486;12.176;2023-07-24T05:52:42;9.40;;;5.57;;
29044;SDS011;16133;49.486;12.176;2023-07-24T05:55:08;10.02;;;6.05;;
29044;SDS011;16133;49.486;12.176;2023-07-24T05:57:34;10.00;;;6.35;;
29044;SDS011;16133;49.486;12.176;2023-07-24T06:00:00;8.82;;;5.30;;
29044;SDS011;16133;49.486;12.176;2023-07-24T06:02:25;11.70;;;6.28;;
29044;SDS011;16133;49.486;12.176;2023-07-24T06:04:50;7.30;;;4.85;;
29044;SDS011;16133;49.486;12.176;2023-07-24T06:07:16;9.82;;;5.68;;
29044;SDS011;16133;49.486;12.176;2023-07-24T06:09:41;9.23;;;5.45;;
29044;SDS011;16133;49.486;12.176;2023-07-24T06:12:07;8.98;;;6.05;;
29044;SDS011;16133;49.486;12.176;2023-07-24T06:14:32;10.35;;;5.80;;
29044;SDS011;16133;49.486;12.176;2023-07-24T06:16:58;11.75;;;6.72;;
29044;SDS011;16133;49.486;12.176;2023-07-24T06:19:23;10.15;;;5.70;;
29044;SDS011;16133;49.486;12.176;2023-07-24T06:21:48;9.02;;;5.70;;
29044;SDS011;16133;49.486;12.176;2023-07-24T06:24:14;8.75;;;5.90;;
29044;SDS011;16133;49.486;12.176;2023-07-24T06:26:40;9.70;;;5.60;;
29044;SDS011;16133;49.486;12.176;2023-07-24T06:29:05;12.40;;;6.05;;
29044;SDS011;16133;49.486;12.176;2023-07-24T06:31:31;9.82;;;5.68;;
29044;SDS011;16133;49.486;12.176;2023-07-24T06:33:56;10.43;;;5.57;;
29044;SDS011;16133;49.486;12.176;2023-07-24T06:36:22;10.40;;;6.00;;
29044;SDS011;16133;49.486;12.176;2023-07-24T06:38:47;11.20;;;6.68;;
29044;SDS011;16133;49.486;12.176;2023-07-24T06:41:13;10.38;;;5.90;;
29044;SDS011;16133;49.486;12.176;2023-07-24T06:43:40;10.15;;;5.53;;
29044;SDS011;16133;49.486;12.176;2023-07-24T06:46:09;11.43;;;6.78;;
29044;SDS011;16133;49.486;12.176;2023-07-24T06:48:35;10.73;;;6.13;;
29044;SDS011;16133;49.486;12.176;2023-07-24T06:51:00;9.48;;;5.82;;
29044;SDS011;16133;49.486;12.176;2023-07-24T06:53:25;9.15;;;5.22;;
29044;SDS011;16133;49.486;12.176;2023-07-24T06:55:51;11.88;;;6.65;;
29044;SDS011;16133;49.486;12.176;2023-07-24T06:58:16;10.98;;;6.32;;
29044;SDS011;16133;49.486;12.176;2023-07-24T07:00:42;11.63;;;6.43;;
29044;SDS011;16133;49.486;12.176;2023-07-24T07:03:08;11.48;;;6.68;;
29044;SDS011;16133;49.486;12.176;2023-07-24T07:05:33;12.15;;;6.50;;
29044;SDS011;16133;49.486;12.176;2023-07-24T07:07:58;10.32;;;5.95;;
29044;SDS011;16133;49.486;12.176;2023-07-24T07:10:24;9.15;;;5.70;;
29044;SDS011;16133;49.486;12.176;2023-07-24T07:12:49;9.88;;;5.93;;
29044;SDS011;16133;49.486;12.176;2023-07-24T07:15:15;9.43;;;5.10;;
29044;SDS011;16133;49.486;12.176;2023-07-24T07:17:41;10.45;;;5.93;;
29044;SDS011;16133;49.486;12.176;2023-07-24T07:20:07;10.15;;;6.20;;
29044;SDS011;16133;49.486;12.176;2023-07-24T07:22:32;9.02;;;5.32;;
29044;SDS011;16133;49.486;12.176;2023-07-24T07:24:58;8.98;;;5.80;;
29044;SDS011;16133;49.486;12.176;2023-07-24T07:27:23;11.00;;;6.05;;
29044;SDS011;16133;49.486;12.176;2023-07-24T07:29:49;12.00;;;6.03;;
29044;SDS011;16133;49.486;12.176;2023-07-24T07:32:14;8.85;;;5.50;;
29044;SDS011;16133;49.486;12.176;2023-07-24T07:34:39;8.85;;;5.55;;
29044;SDS011;16133;49.486;12.176;2023-07-24T07:37:06;8.98;;;5.30;;
29044;SDS011;16133;49.486;12.176;2023-07-24T07:39:31;9.35;;;5.70;;
29044;SDS011;16133;49.486;12.176;2023-07-24T07:41:57;10.15;;;5.90;;
29044;SDS011;16133;49.486;12.176;2023-07-24T07:44:22;9.68;;;5.97;;
29044;SDS011;16133;49.486;12.176;2023-07-24T07:46:48;8.70;;;5.85;;
29044;SDS011;16133;49.486;12.176;2023-07-24T07:49:13;10.88;;;6.22;;
29044;SDS011;16133;49.486;12.176;2023-07-24T07:51:42;8.77;;;6.00;;
29044;SDS011;16133;49.486;12.176;2023-07-24T07:54:10;10.10;;;5.97;;
29044;SDS011;16133;49.486;12.176;2023-07-24T07:56:35;10.52;;;6.22;;
29044;SDS011;16133;49.486;12.176;2023-07-24T07:59:01;10.35;;;5.70;;
29044;SDS011;16133;49.486;12.176;2023-07-24T08:01:26;9.73;;;6.40;;
29044;SDS011;16133;49.486;12.176;2023-07-24T08:03:51;10.55;;;6.80;;
29044;SDS011;16133;49.486;12.176;2023-07-24T08:06:17;9.13;;;5.70;;
29044;SDS011;16133;49.486;12.176;2023-07-24T08:08:42;9.90;;;5.50;;
29044;SDS011;16133;49.486;12.176;2023-07-24T08:11:08;10.15;;;6.35;;
29044;SDS011;16133;49.486;12.176;2023-07-24T08:13:34;10.07;;;5.95;;
29044;SDS011;16133;49.486;12.176;2023-07-24T08:15:59;9.75;;;6.22;;
29044;SDS011;16133;49.486;12.176;2023-07-24T08:18:26;9.35;;;5.57;;
29044;SDS011;16133;49.486;12.176;2023-07-24T08:20:51;9.88;;;6.20;;
29044;SDS011;16133;49.486;12.176;2023-07-24T08:23:17;9.68;;;6.20;;
29044;SDS011;16133;49.486;12.176;2023-07-24T08:25:54;10.88;;;6.68;;
29044;SDS011;16133;49.486;12.176;2023-07-24T08:28:20;9.68;;;6.70;;
29044;SDS011;16133;49.486;12.176;2023-07-24T08:30:46;9.43;;;5.82;;
29044;SDS011;16133;49.486;12.176;2023-07-24T08:33:20;9.98;;;6.28;;
29044;SDS011;16133;49.486;12.176;2023-07-24T08:35:45;14.65;;;6.70;;
29044;SDS011;16133;49.486;12.176;2023-07-24T08:38:11;10.18;;;6.07;;
29044;SDS011;16133;49.486;12.176;2023-07-24T08:40:36;10.82;;;6.22;;
29044;SDS011;16133;49.486;12.176;2023-07-24T08:43:02;11.20;;;6.57;;
29044;SDS011;16133;49.486;12.176;2023-07-24T08:45:29;13.80;;;6.68;;
29044;SDS011;16133;49.486;12.176;2023-07-24T08:47:55;13.30;;;6.55;;
29044;SDS011;16133;49.486;12.176;2023-07-24T08:50:22;10.70;;;6.78;;
29044;SDS011;16133;49.486;12.176;2023-07-24T08:52:48;12.82;;;7.07;;
29044;SDS011;16133;49.486;12.176;2023-07-24T08:55:13;14.00;;;7.05;;
29044;SDS011;16133;49.486;12.176;2023-07-24T08:57:39;13.00;;;6.95;;
29044;SDS011;16133;49.486;12.176;2023-07-24T09:00:08;13.25;;;7.07;;
29044;SDS011;16133;49.486;12.176;2023-07-24T09:02:35;10.75;;;6.57;;
29044;SDS011;16133;49.486;12.176;2023-07-24T09:05:01;10.57;;;6.45;;
29044;SDS011;16133;49.486;12.176;2023-07-24T09:07:26;10.63;;;6.28;;
29044;SDS011;16133;49.486;12.176;2023-07-24T09:09:52;11.75;;;6.32;;
29044;SDS011;16133;49.486;12.176;2023-07-24T09:12:18;14.40;;;6.95;;
29044;SDS011;16133;49.486;12.176;2023-07-24T09:14:43;12.27;;;6.90;;
29044;SDS011;16133;49.486;12.176;2023-07-24T09:17:10;14.57;;;7.13;;
29044;SDS011;16133;49.486;12.176;2023-07-24T09:19:37;11.35;;;6.95;;
29044;SDS011;16133;49.486;12.176;2023-07-24T09:22:13;12.15;;;6.35;;
29044;SDS011;16133;49.486;12.176;2023-07-24T09:24:49;11.60;;;7.13;;
29044;SDS011;16133;49.486;12.176;2023-07-24T09:27:16;11.68;;;6.50;;
29044;SDS011;16133;49.486;12.176;2023-07-24T09:29:42;12.15;;;6.70;;
29044;SDS011;16133;49.486;12.176;2023-07-24T09:32:17;12.40;;;6.65;;
29044;SDS011;16133;49.486;12.176;2023-07-24T09:34:52;11.55;;;6.97;;
29044;SDS011;16133;49.486;12.176;2023-07-24T09:37:25;13.25;;;7.00;;
29044;SDS011;16133;49.486;12.176;2023-07-24T09:39:51;14.02;;;7.38;;
29044;SDS011;16133;49.486;12.176;2023-07-24T09:42:16;12.02;;;6.95;;
29044;SDS011;16133;49.486;12.176;2023-07-24T09:44:41;13.48;;;7.72;;
29044;SDS011;16133;49.486;12.176;2023-07-24T09:47:07;12.07;;;7.32;;
29044;SDS011;16133;49.486;12.176;2023-07-24T09:49:32;11.32;;;6.30;;
29044;SDS011;16133;49.486;12.176;2023-07-24T09:51:58;12.02;;;6.47;;
29044;SDS011;16133;49.486;12.176;2023-07-24T09:54:30;11.88;;;7.18;;
29044;SDS011;16133;49.486;12.176;2023-07-24T09:56:58;18.17;;;6.90;;
29044;SDS011;16133;49.486;12.176;2023-07-24T09:59:25;11.85;;;7.50;;
29044;SDS011;16133;49.486;12.176;2023-07-24T10:01:52;10.82;;;6.15;;
29044;SDS011;16133;49.486;12.176;2023-07-24T10:04:18;11.65;;;6.38;;
29044;SDS011;16133;49.486;12.176;2023-07-24T10:06:44;12.85;;;6.03;;
29044;SDS011;16133;49.486;12.176;2023-07-24T10:09:11;10.68;;;5.78;;
29044;SDS011;16133;49.486;12.176;2023-07-24T10:11:37;13.70;;;6.13;;
29044;SDS011;16133;49.486;12.176;2023-07-24T10:14:02;11.45;;;6.35;;
29044;SDS011;16133;49.486;12.176;2023-07-24T10:16:28;10.65;;;5.90;;
29044;SDS011;16133;49.486;12.176;2023-07-24T10:18:54;10.35;;;6.15;;
29044;SDS011;16133;49.486;12.176;2023-07-24T10:21:25;10.57;;;6.03;;
29044;SDS011;16133;49.486;12.176;2023-07-24T10:23:52;13.85;;;6.18;;
29044;SDS011;16133;49.486;12.176;2023-07-24T10:26:24;11.13;;;6.82;;
29044;SDS011;16133;49.486;12.176;2023-07-24T10:28:51;9.50;;;5.88;;
29044;SDS011;16133;49.486;12.176;2023-07-24T10:31:20;16.20;;;6.82;;
29044;SDS011;16133;49.486;12.176;2023-07-24T10:33:47;8.90;;;6.22;;
29044;SDS011;16133;49.486;12.176;2023-07-24T10:36:16;12.23;;;6.97;;
29044;SDS011;16133;49.486;12.176;2023-07-24T10:38:46;10.25;;;5.75;;
29044;SDS011;16133;49.486;12.176;2023-07-24T10:41:17;9.75;;;5.95;;
29044;SDS011;16133;49.486;12.176;2023-07-24T10:43:46;9.93;;;6.15;;
29044;SDS011;16133;49.486;12.176;2023-07-24T10:46:14;13.90;;;6.68;;
29044;SDS011;16133;49.486;12.176;2023-07-24T10:48:44;10.52;;;6.22;;
29044;SDS011;16133;49.486;12.176;2023-07-24T10:51:14;10.15;;;6.38;;
29044;SDS011;16133;49.486;12.176;2023-07-24T10:53:48;10.40;;;5.85;;
29044;SDS011;16133;49.486;12.176;2023-07-24T10:56:14;9.68;;;5.93;;
29044;SDS011;16133;49.486;12.176;2023-07-24T10:58:43;11.02;;;6.05;;
29044;SDS011;16133;49.486;12.176;2023-07-24T11:01:09;10.57;;;6.38;;
29044;SDS011;16133;49.486;12.176;2023-07-24T11:03:39;9.35;;;6.13;;
29044;SDS011;16133;49.486;12.176;2023-07-24T11:06:12;12.07;;;6.35;;
29044;SDS011;16133;49.486;12.176;2023-07-24T11:08:42;10.40;;;6.82;;
29044;SDS011;16133;49.486;12.176;2023-07-24T11:11:07;11.13;;;6.85;;
29044;SDS011;16133;49.486;12.176;2023-07-24T11:13:33;12.65;;;6.63;;
29044;SDS011;16133;49.486;12.176;2023-07-24T11:16:06;13.07;;;7.20;;
29044;SDS011;16133;49.486;12.176;2023-07-24T11:18:33;11.95;;;6.80;;
29044;SDS011;16133;49.486;12.176;2023-07-24T11:21:11;10.80;;;5.90;;
29044;SDS011;16133;49.486;12.176;2023-07-24T11:23:37;12.32;;;6.38;;
29044;SDS011;16133;49.486;12.176;2023-07-24T11:26:03;9.70;;;6.28;;
29044;SDS011;16133;49.486;12.176;2023-07-24T11:28:38;10.50;;;6.40;;
29044;SDS011;16133;49.486;12.176;2023-07-24T11:31:04;10.45;;;6.53;;
29044;SDS011;16133;49.486;12.176;2023-07-24T11:33:29;9.98;;;5.95;;
29044;SDS011;16133;49.486;12.176;2023-07-24T11:35:55;12.85;;;6.47;;
29044;SDS011;16133;49.486;12.176;2023-07-24T11:38:21;11.30;;;6.60;;
29044;SDS011;16133;49.486;12.176;2023-07-24T11:40:46;9.80;;;6.45;;
29044;SDS011;16133;49.486;12.176;2023-07-24T11:43:17;10.20;;;5.50;;
29044;SDS011;16133;49.486;12.176;2023-07-24T11:45:44;7.53;;;5.13;;
29044;SDS011;16133;49.486;12.176;2023-07-24T11:48:14;8.57;;;5.68;;
29044;SDS011;16133;49.486;12.176;2023-07-24T11:50:45;11.05;;;5.55;;
29044;SDS011;16133;49.486;12.176;2023-07-24T11:53:28;12.63;;;6.43;;
29044;SDS011;16133;49.486;12.176;2023-07-24T11:55:55;13.73;;;6.78;;
29044;SDS011;16133;49.486;12.176;2023-07-24T11:58:25;15.18;;;7.53;;
29044;SDS011;16133;49.486;12.176;2023-07-24T12:00:51;12.95;;;6.85;;
29044;SDS011;16133;49.486;12.176;2023-07-24T12:03:26;12.82;;;6.57;;
29044;SDS011;16133;49.486;12.176;2023-07-24T12:05:53;15.70;;;7.13;;
29044;SDS011;16133;49.486;12.176;2023-07-24T12:08:32;12.13;;;7.32;;
29044;SDS011;16133;49.486;12.176;2023-07-24T12:10:59;15.63;;;7.82;;
29044;SDS011;16133;49.486;12.176;2023-07-24T12:13:25;13.68;;;7.80;;
29044;SDS011;16133;49.486;12.176;2023-07-24T12:15:50;12.40;;;7.63;;
29044;SDS011;16133;49.486;12.176;2023-07-24T12:18:16;15.75;;;7.93;;
29044;SDS011;16133;49.486;12.176;2023-07-24T12:20:41;18.42;;;8.88;;
29044;SDS011;16133;49.486;12.176;2023-07-24T12:23:07;13.35;;;7.63;;
29044;SDS011;16133;49.486;12.176;2023-07-24T12:25:32;14.32;;;7.93;;
29044;SDS011;16133;49.486;12.176;2023-07-24T12:27:58;14.85;;;8.15;;
29044;SDS011;16133;49.486;12.176;2023-07-24T12:30:23;15.05;;;8.23;;
29044;SDS011;16133;49.486;12.176;2023-07-24T12:32:49;16.52;;;8.32;;
29044;SDS011;16133;49.486;12.176;2023-07-24T12:35:15;17.67;;;8.43;;
29044;SDS011;16133;49.486;12.176;2023-07-24T12:37:41;14.68;;;7.25;;
29044;SDS011;16133;49.486;12.176;2023-07-24T12:40:07;14.43;;;7.43;;
29044;SDS011;16133;49.486;12.176;2023-07-24T12:42:33;13.43;;;7.75;;
29044;SDS011;16133;49.486;12.176;2023-07-24T12:44:59;13.57;;;7.35;;
29044;SDS011;16133;49.486;12.176;2023-07-24T12:47:27;13.93;;;7.30;;
29044;SDS011;16133;49.486;12.176;2023-07-24T12:49:52;14.43;;;7.47;;
29044;SDS011;16133;49.486;12.176;2023-07-24T12:52:20;11.95;;;6.93;;
29044;SDS011;16133;49.486;12.176;2023-07-24T12:54:46;12.13;;;6.78;;
29044;SDS011;16133;49.486;12.176;2023-07-24T12:57:11;9.98;;;5.80;;
29044;SDS011;16133;49.486;12.176;2023-07-24T12:59:36;10.00;;;5.85;;
29044;SDS011;16133;49.486;12.176;2023-07-24T13:02:02;12.35;;;6.32;;
29044;SDS011;16133;49.486;12.176;2023-07-24T13:04:28;12.18;;;5.65;;
29044;SDS011;16133;49.486;12.176;2023-07-24T13:06:53;9.93;;;5.60;;
29044;SDS011;16133;49.486;12.176;2023-07-24T13:09:19;10.60;;;5.82;;
29044;SDS011;16133;49.486;12.176;2023-07-24T13:11:44;13.38;;;6.03;;
29044;SDS011;16133;49.486;12.176;2023-07-24T13:14:13;14.43;;;6.35;;
29044;SDS011;16133;49.486;12.176;2023-07-24T13:16:38;7.43;;;4.45;;
29044;SDS011;16133;49.486;12.176;2023-07-24T13:19:04;10.85;;;5.40;;
29044;SDS011;16133;49.486;12.176;2023-07-24T13:21:30;10.02;;;5.30;;
29044;SDS011;16133;49.486;12.176;2023-07-24T13:23:55;10.05;;;5.65;;
29044;SDS011;16133;49.486;12.176;2023-07-24T13:26:21;9.18;;;5.25;;
29044;SDS011;16133;49.486;12.176;2023-07-24T13:28:46;9.50;;;5.28;;
29044;SDS011;16133;49.486;12.176;2023-07-24T13:31:15;9.90;;;5.80;;
29044;SDS011;16133;49.486;12.176;2023-07-24T13:33:42;7.70;;;4.80;;
29044;SDS011;16133;49.486;12.176;2023-07-24T13:36:09;8.38;;;5.30;;
29044;SDS011;16133;49.486;12.176;2023-07-24T13:38:35;8.10;;;4.95;;
29044;SDS011;16133;49.486;12.176;2023-07-24T13:41:00;9.73;;;5.32;;
29044;SDS011;16133;49.486;12.176;2023-07-24T13:43:26;11.48;;;5.15;;
29044;SDS011;16133;49.486;12.176;2023-07-24T13:45:52;8.60;;;5.68;;
29044;SDS011;16133;49.486;12.176;2023-07-24T13:48:18;7.88;;;4.72;;
29044;SDS011;16133;49.486;12.176;2023-07-24T13:50:43;8.68;;;5.25;;
29044;SDS011;16133;49.486;12.176;2023-07-24T13:53:09;8.60;;;5.03;;
29044;SDS011;16133;49.486;12.176;2023-07-24T13:55:35;13.27;;;5.70;;
29044;SDS011;16133;49.486;12.176;2023-07-24T13:58:00;9.25;;;5.28;;
29044;SDS011;16133;49.486;12.176;2023-07-24T14:00:26;6.75;;;4.40;;
29044;SDS011;16133;49.486;12.176;2023-07-24T14:02:51;6.55;;;4.43;;
29044;SDS011;16133;49.486;12.176;2023-07-24T14:05:17;6.38;;;4.45;;
29044;SDS011;16133;49.486;12.176;2023-07-24T14:07:42;9.10;;;4.47;;
29044;SDS011;16133;49.486;12.176;2023-07-24T14:10:09;8.25;;;4.50;;
29044;SDS011;16133;49.486;12.176;2023-07-24T14:12:35;6.25;;;4.35;;
29044;SDS011;16133;49.486;12.176;2023-07-24T14:15:00;7.20;;;4.57;;
29044;SDS011;16133;49.486;12.176;2023-07-24T14:17:25;7.03;;;4.95;;
29044;SDS011;16133;49.486;12.176;2023-07-24T14:19:51;7.72;;;5.00;;
29044;SDS011;16133;49.486;12.176;2023-07-24T14:22:17;8.77;;;5.13;;
29044;SDS011;16133;49.486;12.176;2023-07-24T14:24:42;6.32;;;4.50;;
29044;SDS011;16133;49.486;12.176;2023-07-24T14:27:08;7.60;;;4.78;;